sensor_id;sensor_type;location;lat;lon;timestamp;pressure;altitude;pressure_sealevel;temperature;humidity
54854;BME280;40747;49.480;8.658;2023-09-19T00:00:26;99841.38;;;17.94;100.00
54854;BME280;40747;49.480;8.658;2023-09-19T00:02:56;99831.34;;;17.98;100.00
54854;BME280;40747;49.480;8.658;2023-09-19T00:05:22;99845.00;;;17.93;100.00
54854;BME280;40747;49.480;8.658;2023-09-19T00:07:50;99844.31;;;17.90;100.00
54854;BME280;40747;49.480;8.658;2023-09-19T00:10:16;99849.25;;;17.96;100.00
54854;BME280;40747;49.480;8.658;2023-09-19T00:12:43;99851.38;;;18.04;100.00
54854;BME280;40747;49.480;8.658;2023-09-19T00:15:09;99845.00;;;18.06;100.00
54854;BME280;40747;49.480;8.658;2023-09-19T00:17:35;99849.78;;;18.01;100.00
54854;BME280;40747;49.480;8.658;2023-09-19T00:20:03;99849.03;;;18.12;100.00
54854;BME280;40747;49.480;8.658;2023-09-19T00:22:32;99842.09;;;18.09;99.32
54854;BME280;40747;49.480;8.658;2023-09-19T00:24:58;99849.69;;;18.02;99.83
54854;BME280;40747;49.480;8.658;2023-09-19T00:27:23;99845.09;;;18.05;99.96
54854;BME280;40747;49.480;8.658;2023-09-19T00:29:48;99853.94;;;18.05;100.00
54854;BME280;40747;49.480;8.658;2023-09-19T00:32:13;99853.22;;;18.03;100.00
54854;BME280;40747;49.480;8.658;2023-09-19T00:34:39;99853.94;;;18.05;100.00
54854;BME280;40747;49.480;8.658;2023-09-19T00:37:04;99860.66;;;17.98;100.00
54854;BME280;40747;49.480;8.658;2023-09-19T00:39:29;99847.31;;;17.98;100.00
54854;BME280;40747;49.480;8.658;2023-09-19T00:41:57;99859.69;;;18.12;100.00
54854;BME280;40747;49.480;8.658;2023-09-19T00:44:22;99864.06;;;18.13;100.00
54854;BME280;40747;49.480;8.658;2023-09-19T00:46:48;99873.56;;;18.17;100.00
54854;BME280;40747;49.480;8.658;2023-09-19T00:49:15;99874.19;;;18.21;100.00
54854;BME280;40747;49.480;8.658;2023-09-19T00:51:40;99870.81;;;18.18;100.00
54854;BME280;40747;49.480;8.658;2023-09-19T00:54:11;99870.16;;;18.15;100.00
54854;BME280;40747;49.480;8.658;2023-09-19T00:56:38;99867.59;;;18.13;100.00
54854;BME280;40747;49.480;8.658;2023-09-19T00:59:05;99878.88;;;18.17;100.00
54854;BME280;40747;49.480;8.658;2023-09-19T01:01:31;99880.47;;;18.20;100.00
54854;BME280;40747;49.480;8.658;2023-09-19T01:03:56;99879.88;;;18.16;100.00
54854;BME280;40747;49.480;8.658;2023-09-19T01:06:22;99883.78;;;18.10;100.00
54854;BME280;40747;49.480;8.658;2023-09-19T01:08:47;99887.53;;;18.08;100.00
54854;BME280;40747;49.480;8.658;2023-09-19T01:13:51;99894.72;;;17.93;100.00
54854;BME280;40747;49.480;8.658;2023-09-19T01:16:37;99891.13;;;17.94;100.00
54854;BME280;40747;49.480;8.658;2023-09-19T01:22:16;99890.19;;;17.95;100.00
54854;BME280;40747;49.480;8.658;2023-09-19T01:30:13;99890.44;;;17.90;100.00
54854;BME280;40747;49.480;8.658;2023-09-19T01:32:39;99886.00;;;17.91;100.00
54854;BME280;40747;49.480;8.658;2023-09-19T01:35:06;99888.47;;;17.94;100.00
54854;BME280;40747;49.480;8.658;2023-09-19T01:37:37;99882.38;;;17.92;100.00
54854;BME280;40747;49.480;8.658;2023-09-19T01:40:07;99891.78;;;17.97;100.00
54854;BME280;40747;49.480;8.658;2023-09-19T01:45:50;99892.50;;;17.87;100.00
54854;BME280;40747;49.480;8.658;2023-09-19T01:51:01;99891.84;;;17.83;100.00
54854;BME280;40747;49.480;8.658;2023-09-19T01:53:33;99897.59;;;17.77;100.00
54854;BME280;40747;49.480;8.658;2023-09-19T01:56:00;99905.47;;;17.78;100.00
54854;BME280;40747;49.480;8.658;2023-09-19T01:58:33;99906.78;;;17.85;100.00
54854;BME280;40747;49.480;8.658;2023-09-19T02:01:00;99904.22;;;17.84;100.00
54854;BME280;40747;49.480;8.658;2023-09-19T02:03:27;99901.34;;;17.87;100.00
54854;BME280;40747;49.480;8.658;2023-09-19T02:05:54;99901.09;;;17.90;100.00
54854;BME280;40747;49.480;8.658;2023-09-19T02:08:21;99916.38;;;17.88;100.00
54854;BME280;40747;49.480;8.658;2023-09-19T02:10:50;99911.03;;;17.88;100.00
54854;BME280;40747;49.480;8.658;2023-09-19T02:13:17;99918.91;;;17.90;100.00
54854;BME280;40747;49.480;8.658;2023-09-19T02:15:44;99932.66;;;17.83;100.00
54854;BME280;40747;49.480;8.658;2023-09-19T02:18:10;99926.59;;;17.81;100.00
54854;BME280;40747;49.480;8.658;2023-09-19T02:20:36;99926.78;;;17.78;100.00
54854;BME280;40747;49.480;8.658;2023-09-19T02:23:02;99933.59;;;17.82;100.00
54854;BME280;40747;49.480;8.658;2023-09-19T02:25:28;99931.91;;;17.81;100.00
54854;BME280;40747;49.480;8.658;2023-09-19T02:27:53;99928.38;;;17.81;100.00
54854;BME280;40747;49.480;8.658;2023-09-19T02:30:19;99938.75;;;17.85;100.00
54854;BME280;40747;49.480;8.658;2023-09-19T02:32:46;99939.69;;;17.84;100.00
54854;BME280;40747;49.480;8.658;2023-09-19T02:35:11;99943.19;;;17.85;100.00
54854;BME280;40747;49.480;8.658;2023-09-19T02:37:39;99940.66;;;17.83;100.00
54854;BME280;40747;49.480;8.658;2023-09-19T02:40:05;99949.19;;;17.89;100.00
54854;BME280;40747;49.480;8.658;2023-09-19T02:42:44;99944.69;;;17.76;100.00
54854;BME280;40747;49.480;8.658;2023-09-19T02:45:14;99953.75;;;17.74;100.00
54854;BME280;40747;49.480;8.658;2023-09-19T02:47:43;99959.81;;;17.76;100.00
54854;BME280;40747;49.480;8.658;2023-09-19T02:50:09;99964.47;;;17.72;100.00
54854;BME280;40747;49.480;8.658;2023-09-19T02:52:36;99967.69;;;17.77;100.00
54854;BME280;40747;49.480;8.658;2023-09-19T02:55:01;99970.06;;;17.82;100.00
54854;BME280;40747;49.480;8.658;2023-09-19T02:57:26;99978.69;;;17.85;100.00
54854;BME280;40747;49.480;8.658;2023-09-19T02:59:52;99965.03;;;17.77;100.00
54854;BME280;40747;49.480;8.658;2023-09-19T03:02:18;99973.47;;;17.84;100.00
54854;BME280;40747;49.480;8.658;2023-09-19T03:04:44;99971.13;;;17.79;100.00
54854;BME280;40747;49.480;8.658;2023-09-19T03:07:10;99981.66;;;17.81;100.00
54854;BME280;40747;49.480;8.658;2023-09-19T03:09:36;99976.22;;;17.82;100.00
54854;BME280;40747;49.480;8.658;2023-09-19T03:12:02;99976.88;;;17.86;100.00
54854;BME280;40747;49.480;8.658;2023-09-19T03:14:29;99976.22;;;17.82;100.00
54854;BME280;40747;49.480;8.658;2023-09-19T03:16:59;99970.06;;;17.82;100.00
54854;BME280;40747;49.480;8.658;2023-09-19T03:19:25;99987.94;;;17.94;100.00
54854;BME280;40747;49.480;8.658;2023-09-19T03:21:51;99994.09;;;17.95;100.00
54854;BME280;40747;49.480;8.658;2023-09-19T03:24:16;99987.59;;;17.99;100.00
54854;BME280;40747;49.480;8.658;2023-09-19T03:26:42;99977.16;;;17.96;100.00
54854;BME280;40747;49.480;8.658;2023-09-19T03:29:07;99989.13;;;18.03;100.00
54854;BME280;40747;49.480;8.658;2023-09-19T03:31:33;99992.75;;;18.02;100.00
54854;BME280;40747;49.480;8.658;2023-09-19T03:34:01;99982.59;;;17.94;100.00
54854;BME280;40747;49.480;8.658;2023-09-19T03:36:29;99990.38;;;17.97;100.00
54854;BME280;40747;49.480;8.658;2023-09-19T03:38:54;99991.81;;;17.89;100.00
54854;BME280;40747;49.480;8.658;2023-09-19T03:41:19;100000.66;;;17.89;100.00
54854;BME280;40747;49.480;8.658;2023-09-19T03:43:45;100000.38;;;17.94;100.00
54854;BME280;40747;49.480;8.658;2023-09-19T03:46:10;100001.88;;;17.98;100.00
54854;BME280;40747;49.480;8.658;2023-09-19T03:48:37;99999.03;;;18.01;100.00
54854;BME280;40747;49.480;8.658;2023-09-19T03:51:03;100004.91;;;18.06;100.00
54854;BME280;40747;49.480;8.658;2023-09-19T03:53:28;100005.97;;;18.04;100.00
54854;BME280;40747;49.480;8.658;2023-09-19T03:55:53;100013.19;;;18.01;100.00
54854;BME280;40747;49.480;8.658;2023-09-19T03:58:19;100001.63;;;17.88;100.00
54854;BME280;40747;49.480;8.658;2023-09-19T04:00:45;100008.75;;;17.88;100.00
54854;BME280;40747;49.480;8.658;2023-09-19T04:03:11;100005.63;;;17.81;100.00
54854;BME280;40747;49.480;8.658;2023-09-19T04:05:44;99994.25;;;17.79;100.00
54854;BME280;40747;49.480;8.658;2023-09-19T04:08:09;100008.63;;;17.76;100.00
54854;BME280;40747;49.480;8.658;2023-09-19T04:10:35;100007.09;;;17.72;100.00
54854;BME280;40747;49.480;8.658;2023-09-19T04:13:00;100010.53;;;17.74;100.00
54854;BME280;40747;49.480;8.658;2023-09-19T04:15:26;100015.75;;;17.76;100.00
54854;BME280;40747;49.480;8.658;2023-09-19T04:17:51;100008.00;;;17.58;100.00
54854;BME280;40747;49.480;8.658;2023-09-19T04:20:18;100021.97;;;17.62;100.00
54854;BME280;40747;49.480;8.658;2023-09-19T04:22:45;100026.84;;;17.55;100.00
54854;BME280;40747;49.480;8.658;2023-09-19T04:25:10;100011.09;;;17.38;100.00
54854;BME280;40747;49.480;8.658;2023-09-19T04:27:35;100019.56;;;17.30;100.00
54854;BME280;40747;49.480;8.658;2023-09-19T04:30:00;100017.41;;;17.22;100.00
54854;BME280;40747;49.480;8.658;2023-09-19T04:32:34;100027.47;;;17.17;100.00
54854;BME280;40747;49.480;8.658;2023-09-19T04:35:01;100029.13;;;17.05;100.00
54854;BME280;40747;49.480;8.658;2023-09-19T04:37:30;100038.88;;;17.04;100.00
54854;BME280;40747;49.480;8.658;2023-09-19T04:39:55;100038.13;;;17.02;100.00
54854;BME280;40747;49.480;8.658;2023-09-19T04:42:20;100047.34;;;16.97;100.00
54854;BME280;40747;49.480;8.658;2023-09-19T04:44:46;100044.47;;;16.85;100.00
54854;BME280;40747;49.480;8.658;2023-09-19T04:47:14;100047.03;;;16.87;100.00
54854;BME280;40747;49.480;8.658;2023-09-19T04:49:41;100051.00;;;16.80;100.00
54854;BME280;40747;49.480;8.658;2023-09-19T04:52:06;100050.91;;;16.81;100.00
54854;BME280;40747;49.480;8.658;2023-09-19T04:54:32;100049.88;;;16.84;100.00
54854;BME280;40747;49.480;8.658;2023-09-19T04:56:59;100053.56;;;16.81;100.00
54854;BME280;40747;49.480;8.658;2023-09-19T04:59:25;100052.72;;;16.81;100.00
54854;BME280;40747;49.480;8.658;2023-09-19T05:01:50;100058.31;;;16.76;100.00
54854;BME280;40747;49.480;8.658;2023-09-19T05:04:16;100059.19;;;16.77;99.89
54854;BME280;40747;49.480;8.658;2023-09-19T05:06:41;100060.81;;;16.79;100.00
54854;BME280;40747;49.480;8.658;2023-09-19T05:09:07;100060.31;;;16.73;100.00
54854;BME280;40747;49.480;8.658;2023-09-19T05:11:33;100069.53;;;16.81;99.82
54854;BME280;40747;49.480;8.658;2023-09-19T05:13:59;100069.53;;;16.81;99.32
54854;BME280;40747;49.480;8.658;2023-09-19T05:16:47;100077.75;;;16.93;98.98
54854;BME280;40747;49.480;8.658;2023-09-19T05:19:12;100082.22;;;16.92;98.83
54854;BME280;40747;49.480;8.658;2023-09-19T05:21:44;100090.31;;;17.05;98.59
54854;BME280;40747;49.480;8.658;2023-09-19T05:24:09;100082.59;;;17.00;97.92
54854;BME280;40747;49.480;8.658;2023-09-19T05:26:46;100089.94;;;17.11;98.02
54854;BME280;40747;49.480;8.658;2023-09-19T05:32:18;100096.97;;;17.12;97.08
54854;BME280;40747;49.480;8.658;2023-09-19T05:34:45;100098.59;;;17.15;97.11
54854;BME280;40747;49.480;8.658;2023-09-19T05:37:29;100099.53;;;17.28;97.74
54854;BME280;40747;49.480;8.658;2023-09-19T05:39:54;100096.41;;;17.22;97.44
54854;BME280;40747;49.480;8.658;2023-09-19T05:42:19;100094.47;;;17.24;96.13
54854;BME280;40747;49.480;8.658;2023-09-19T05:44:45;100095.25;;;17.26;94.53
54854;BME280;40747;49.480;8.658;2023-09-19T05:47:10;100100.19;;;17.32;95.55
54854;BME280;40747;49.480;8.658;2023-09-19T05:49:50;100097.91;;;17.40;96.10
54854;BME280;40747;49.480;8.658;2023-09-19T05:52:15;100099.31;;;17.31;95.24
54854;BME280;40747;49.480;8.658;2023-09-19T05:54:43;100104.84;;;17.28;96.59
54854;BME280;40747;49.480;8.658;2023-09-19T05:57:33;100105.22;;;17.36;96.11
54854;BME280;40747;49.480;8.658;2023-09-19T06:00:06;100092.41;;;17.43;96.55
54854;BME280;40747;49.480;8.658;2023-09-19T06:02:54;100103.88;;;17.44;95.77
54854;BME280;40747;49.480;8.658;2023-09-19T06:08:41;100109.59;;;17.52;96.89
54854;BME280;40747;49.480;8.658;2023-09-19T06:11:28;100113.78;;;17.56;98.22
54854;BME280;40747;49.480;8.658;2023-09-19T06:14:12;100120.50;;;17.62;97.79
54854;BME280;40747;49.480;8.658;2023-09-19T06:16:38;100107.59;;;17.41;97.09
54854;BME280;40747;49.480;8.658;2023-09-19T06:21:39;100134.50;;;17.65;98.76
54854;BME280;40747;49.480;8.658;2023-09-19T06:24:05;100130.00;;;17.66;97.24
54854;BME280;40747;49.480;8.658;2023-09-19T06:26:30;100143.81;;;17.73;97.00
54854;BME280;40747;49.480;8.658;2023-09-19T06:28:56;100143.03;;;17.71;98.50
54854;BME280;40747;49.480;8.658;2023-09-19T06:31:22;100140.25;;;18.01;95.07
54854;BME280;40747;49.480;8.658;2023-09-19T06:33:51;100148.00;;;17.77;97.57
54854;BME280;40747;49.480;8.658;2023-09-19T06:36:16;100146.59;;;17.71;97.03
54854;BME280;40747;49.480;8.658;2023-09-19T06:38:41;100148.66;;;17.66;97.12
54854;BME280;40747;49.480;8.658;2023-09-19T06:41:07;100148.19;;;17.74;96.46
54854;BME280;40747;49.480;8.658;2023-09-19T06:43:34;100144.00;;;17.69;95.80
54854;BME280;40747;49.480;8.658;2023-09-19T06:46:00;100144.94;;;17.83;95.39
54854;BME280;40747;49.480;8.658;2023-09-19T06:48:26;100144.44;;;17.91;95.79
54854;BME280;40747;49.480;8.658;2023-09-19T06:50:53;100147.38;;;18.00;95.81
54854;BME280;40747;49.480;8.658;2023-09-19T06:53:20;100152.81;;;17.84;93.43
54854;BME280;40747;49.480;8.658;2023-09-19T06:55:45;100157.22;;;17.85;93.52
54854;BME280;40747;49.480;8.658;2023-09-19T06:58:13;100164.03;;;17.90;92.61
54854;BME280;40747;49.480;8.658;2023-09-19T07:00:38;100172.34;;;17.99;93.88
54854;BME280;40747;49.480;8.658;2023-09-19T07:03:04;100178.91;;;18.08;93.24
54854;BME280;40747;49.480;8.658;2023-09-19T07:05:34;100181.00;;;18.03;91.54
54854;BME280;40747;49.480;8.658;2023-09-19T07:08:04;100178.53;;;18.00;91.49
54854;BME280;40747;49.480;8.658;2023-09-19T07:10:31;100178.47;;;18.14;91.37
54854;BME280;40747;49.480;8.658;2023-09-19T07:13:04;100176.63;;;18.29;89.93
54854;BME280;40747;49.480;8.658;2023-09-19T07:15:56;100183.25;;;18.24;90.27
54854;BME280;40747;49.480;8.658;2023-09-19T07:18:23;100190.06;;;18.28;89.18
54854;BME280;40747;49.480;8.658;2023-09-19T07:20:48;100193.34;;;18.46;88.68
54854;BME280;40747;49.480;8.658;2023-09-19T07:23:26;100188.25;;;18.56;87.47
54854;BME280;40747;49.480;8.658;2023-09-19T07:25:52;100200.19;;;18.77;86.90
54854;BME280;40747;49.480;8.658;2023-09-19T07:28:55;100198.97;;;19.09;85.81
54854;BME280;40747;49.480;8.658;2023-09-19T07:31:22;100195.69;;;19.31;85.28
54854;BME280;40747;49.480;8.658;2023-09-19T07:33:48;100184.34;;;19.02;82.73
54854;BME280;40747;49.480;8.658;2023-09-19T07:36:13;100201.66;;;19.22;83.66
54854;BME280;40747;49.480;8.658;2023-09-19T07:38:42;100200.81;;;19.34;82.54
54854;BME280;40747;49.480;8.658;2023-09-19T07:41:08;100192.03;;;19.32;82.09
54854;BME280;40747;49.480;8.658;2023-09-19T07:43:36;100206.69;;;19.52;81.58
54854;BME280;40747;49.480;8.658;2023-09-19T07:46:07;100209.34;;;19.65;79.75
54854;BME280;40747;49.480;8.658;2023-09-19T07:48:35;100213.72;;;19.66;80.73
54854;BME280;40747;49.480;8.658;2023-09-19T07:51:08;100218.31;;;20.03;79.88
54854;BME280;40747;49.480;8.658;2023-09-19T07:53:34;100217.00;;;20.08;78.42
54854;BME280;40747;49.480;8.658;2023-09-19T07:56:07;100220.09;;;20.39;77.91
54854;BME280;40747;49.480;8.658;2023-09-19T07:58:33;100231.81;;;20.50;76.37
54854;BME280;40747;49.480;8.658;2023-09-19T08:01:06;100227.03;;;20.66;75.16
54854;BME280;40747;49.480;8.658;2023-09-19T08:03:32;100223.81;;;20.50;75.46
54854;BME280;40747;49.480;8.658;2023-09-19T08:05:57;100225.31;;;20.54;75.07
54854;BME280;40747;49.480;8.658;2023-09-19T08:08:23;100229.78;;;20.53;74.51
54854;BME280;40747;49.480;8.658;2023-09-19T08:10:53;100224.47;;;20.77;72.38
54854;BME280;40747;49.480;8.658;2023-09-19T08:13:18;100234.69;;;20.84;74.08
54854;BME280;40747;49.480;8.658;2023-09-19T08:15:44;100243.81;;;20.81;73.63
54854;BME280;40747;49.480;8.658;2023-09-19T08:18:09;100244.59;;;20.94;75.44
54854;BME280;40747;49.480;8.658;2023-09-19T08:20:37;100240.06;;;20.84;72.50
54854;BME280;40747;49.480;8.658;2023-09-19T08:23:03;100236.38;;;20.73;72.67
54854;BME280;40747;49.480;8.658;2023-09-19T08:25:28;100249.44;;;20.89;73.72
54854;BME280;40747;49.480;8.658;2023-09-19T08:27:55;100250.81;;;20.95;71.60
54854;BME280;40747;49.480;8.658;2023-09-19T08:30:23;100253.03;;;21.01;71.99
54854;BME280;40747;49.480;8.658;2023-09-19T08:33:01;100262.94;;;20.88;70.68
54854;BME280;40747;49.480;8.658;2023-09-19T08:35:28;100267.03;;;20.81;72.52
54854;BME280;40747;49.480;8.658;2023-09-19T08:37:53;100258.03;;;20.82;70.99
54854;BME280;40747;49.480;8.658;2023-09-19T08:40:20;100263.84;;;20.75;69.38
54854;BME280;40747;49.480;8.658;2023-09-19T08:42:52;100278.09;;;20.76;70.68
54854;BME280;40747;49.480;8.658;2023-09-19T08:45:19;100273.47;;;20.54;69.91
54854;BME280;40747;49.480;8.658;2023-09-19T08:48:11;100266.72;;;20.48;71.43
54854;BME280;40747;49.480;8.658;2023-09-19T08:50:49;100267.59;;;20.36;70.50
54854;BME280;40747;49.480;8.658;2023-09-19T08:53:21;100269.22;;;20.38;71.10
54854;BME280;40747;49.480;8.658;2023-09-19T08:55:50;100275.00;;;20.69;70.74
54854;BME280;40747;49.480;8.658;2023-09-19T08:58:17;100265.38;;;20.67;69.23
54854;BME280;40747;49.480;8.658;2023-09-19T09:00:45;100259.75;;;20.83;68.83
54854;BME280;40747;49.480;8.658;2023-09-19T09:03:14;100271.28;;;20.96;69.41
54854;BME280;40747;49.480;8.658;2023-09-19T09:05:42;100269.16;;;21.24;67.27
54854;BME280;40747;49.480;8.658;2023-09-19T09:08:11;100270.50;;;21.18;65.64
54854;BME280;40747;49.480;8.658;2023-09-19T09:10:37;100271.34;;;21.19;67.38
54854;BME280;40747;49.480;8.658;2023-09-19T09:13:03;100281.50;;;21.02;65.10
54854;BME280;40747;49.480;8.658;2023-09-19T09:15:35;100271.81;;;21.13;64.35
54854;BME280;40747;49.480;8.658;2023-09-19T09:18:02;100267.28;;;20.77;64.57
54854;BME280;40747;49.480;8.658;2023-09-19T09:20:28;100275.06;;;20.81;65.03
54854;BME280;40747;49.480;8.658;2023-09-19T09:22:55;100274.59;;;21.11;63.41
54854;BME280;40747;49.480;8.658;2023-09-19T09:25:22;100271.06;;;21.10;63.67
54854;BME280;40747;49.480;8.658;2023-09-19T09:27:59;100264.31;;;21.40;65.10
54854;BME280;40747;49.480;8.658;2023-09-19T09:30:36;100264.75;;;21.58;66.26
54854;BME280;40747;49.480;8.658;2023-09-19T09:33:11;100267.34;;;21.60;65.11
54854;BME280;40747;49.480;8.658;2023-09-19T09:35:46;100258.56;;;21.81;64.52
54854;BME280;40747;49.480;8.658;2023-09-19T09:38:12;100272.34;;;21.99;65.93
54854;BME280;40747;49.480;8.658;2023-09-19T09:40:46;100263.56;;;22.19;64.22
54854;BME280;40747;49.480;8.658;2023-09-19T09:46:16;100271.84;;;22.39;64.06
54854;BME280;40747;49.480;8.658;2023-09-19T09:51:49;100272.34;;;22.21;63.56
54854;BME280;40747;49.480;8.658;2023-09-19T09:54:25;100265.53;;;22.06;62.91
54854;BME280;40747;49.480;8.658;2023-09-19T09:57:07;100261.47;;;22.23;62.44
54854;BME280;40747;49.480;8.658;2023-09-19T09:59:55;100260.47;;;22.35;61.75
54854;BME280;40747;49.480;8.658;2023-09-19T10:02:29;100264.38;;;22.31;61.68
54854;BME280;40747;49.480;8.658;2023-09-19T10:04:58;100252.50;;;22.68;62.75
54854;BME280;40747;49.480;8.658;2023-09-19T10:07:32;100256.41;;;22.96;61.84
54854;BME280;40747;49.480;8.658;2023-09-19T10:10:04;100250.25;;;22.84;60.61
54854;BME280;40747;49.480;8.658;2023-09-19T10:12:42;100251.59;;;22.79;59.02
54854;BME280;40747;49.480;8.658;2023-09-19T10:15:10;100255.16;;;23.00;61.51
54854;BME280;40747;49.480;8.658;2023-09-19T10:17:36;100237.09;;;23.02;59.30
54854;BME280;40747;49.480;8.658;2023-09-19T10:20:02;100249.13;;;22.87;58.70
54854;BME280;40747;49.480;8.658;2023-09-19T10:22:38;100253.06;;;22.83;60.26
54854;BME280;40747;49.480;8.658;2023-09-19T10:25:07;100242.75;;;22.99;60.62
54854;BME280;40747;49.480;8.658;2023-09-19T10:27:34;100247.94;;;22.80;59.16
54854;BME280;40747;49.480;8.658;2023-09-19T10:30:05;100237.69;;;22.73;60.51
54854;BME280;40747;49.480;8.658;2023-09-19T10:32:34;100244.59;;;22.66;60.97
54854;BME280;40747;49.480;8.658;2023-09-19T10:35:01;100237.19;;;22.80;60.70
54854;BME280;40747;49.480;8.658;2023-09-19T10:37:29;100239.25;;;22.55;59.70
54854;BME280;40747;49.480;8.658;2023-09-19T10:39:58;100235.47;;;22.79;58.80
54854;BME280;40747;49.480;8.658;2023-09-19T10:42:25;100240.22;;;22.86;57.77
54854;BME280;40747;49.480;8.658;2023-09-19T10:44:54;100230.53;;;22.95;57.62
54854;BME280;40747;49.480;8.658;2023-09-19T10:47:20;100244.88;;;23.17;57.20
54854;BME280;40747;49.480;8.658;2023-09-19T10:49:49;100243.09;;;23.27;59.08
54854;BME280;40747;49.480;8.658;2023-09-19T10:52:19;100242.44;;;23.35;57.70
54854;BME280;40747;49.480;8.658;2023-09-19T10:54:48;100253.50;;;23.63;56.81
54854;BME280;40747;49.480;8.658;2023-09-19T10:57:23;100240.44;;;23.58;57.08
54854;BME280;40747;49.480;8.658;2023-09-19T11:00:04;100247.34;;;23.51;56.54
54854;BME280;40747;49.480;8.658;2023-09-19T11:05:37;100235.63;;;23.31;55.75
54854;BME280;40747;49.480;8.658;2023-09-19T11:08:06;100236.41;;;23.43;55.26
54854;BME280;40747;49.480;8.658;2023-09-19T11:10:51;100235.19;;;23.78;55.96
54854;BME280;40747;49.480;8.658;2023-09-19T11:13:30;100233.13;;;23.91;54.17
54854;BME280;40747;49.480;8.658;2023-09-19T11:18:57;100232.72;;;23.65;53.79
54854;BME280;40747;49.480;8.658;2023-09-19T11:26:44;100206.91;;;24.34;54.39
54854;BME280;40747;49.480;8.658;2023-09-19T11:29:29;100208.19;;;24.40;54.32
54854;BME280;40747;49.480;8.658;2023-09-19T11:31:56;100211.22;;;24.66;53.41
54854;BME280;40747;49.480;8.658;2023-09-19T11:39:39;100209.72;;;24.23;53.44
54854;BME280;40747;49.480;8.658;2023-09-19T11:42:43;100203.94;;;24.27;51.19
54854;BME280;40747;49.480;8.658;2023-09-19T11:48:23;100215.34;;;23.48;54.09
54854;BME280;40747;49.480;8.658;2023-09-19T11:50:50;100202.19;;;23.23;54.08
54854;BME280;40747;49.480;8.658;2023-09-19T11:53:17;100210.94;;;22.83;54.66
54854;BME280;40747;49.480;8.658;2023-09-19T11:55:42;100202.91;;;23.04;55.61
54854;BME280;40747;49.480;8.658;2023-09-19T11:58:09;100199.31;;;23.15;55.66
54854;BME280;40747;49.480;8.658;2023-09-19T12:00:35;100189.59;;;23.45;54.36
54854;BME280;40747;49.480;8.658;2023-09-19T12:03:09;100186.94;;;23.24;54.60
54854;BME280;40747;49.480;8.658;2023-09-19T12:05:34;100192.34;;;22.91;55.34
54854;BME280;40747;49.480;8.658;2023-09-19T12:08:02;100186.00;;;22.92;55.39
54854;BME280;40747;49.480;8.658;2023-09-19T12:10:28;100188.50;;;23.27;55.25
54854;BME280;40747;49.480;8.658;2023-09-19T12:12:53;100186.94;;;23.55;55.13
54854;BME280;40747;49.480;8.658;2023-09-19T12:15:25;100167.06;;;23.67;52.77
54854;BME280;40747;49.480;8.658;2023-09-19T12:18:00;100168.41;;;23.52;53.88
54854;BME280;40747;49.480;8.658;2023-09-19T12:20:25;100181.03;;;23.30;54.00
54854;BME280;40747;49.480;8.658;2023-09-19T12:23:12;100172.63;;;23.45;53.65
54854;BME280;40747;49.480;8.658;2023-09-19T12:25:42;100172.88;;;23.82;52.97
54854;BME280;40747;49.480;8.658;2023-09-19T12:28:11;100165.13;;;23.79;52.55
54854;BME280;40747;49.480;8.658;2023-09-19T12:30:37;100169.50;;;23.80;53.12
54854;BME280;40747;49.480;8.658;2023-09-19T12:33:04;100171.16;;;24.02;53.96
54854;BME280;40747;49.480;8.658;2023-09-19T12:35:30;100163.94;;;23.62;51.44
54854;BME280;40747;49.480;8.658;2023-09-19T12:37:56;100176.59;;;23.50;52.19
54854;BME280;40747;49.480;8.658;2023-09-19T12:40:22;100166.72;;;23.51;51.60
54854;BME280;40747;49.480;8.658;2023-09-19T12:42:52;100158.91;;;23.48;51.02
54854;BME280;40747;49.480;8.658;2023-09-19T12:45:20;100162.53;;;23.37;51.41
54854;BME280;40747;49.480;8.658;2023-09-19T12:48:18;100158.81;;;23.07;52.05
54854;BME280;40747;49.480;8.658;2023-09-19T12:51:06;100148.63;;;23.11;52.12
54854;BME280;40747;49.480;8.658;2023-09-19T12:53:34;100155.50;;;23.15;52.57
54854;BME280;40747;49.480;8.658;2023-09-19T12:56:03;100156.31;;;23.36;51.95
54854;BME280;40747;49.480;8.658;2023-09-19T12:58:31;100152.75;;;23.36;52.68
54854;BME280;40747;49.480;8.658;2023-09-19T13:00:57;100118.56;;;23.48;53.04
54854;BME280;40747;49.480;8.658;2023-09-19T13:05:51;100139.47;;;24.26;54.20
54854;BME280;40747;49.480;8.658;2023-09-19T13:08:27;100138.34;;;24.18;52.30
54854;BME280;40747;49.480;8.658;2023-09-19T13:13:25;100137.94;;;23.82;52.98
54854;BME280;40747;49.480;8.658;2023-09-19T13:15:53;100135.47;;;24.00;53.65
54854;BME280;40747;49.480;8.658;2023-09-19T13:18:19;100133.41;;;23.83;52.78
54854;BME280;40747;49.480;8.658;2023-09-19T13:21:05;100139.31;;;24.17;52.26
54854;BME280;40747;49.480;8.658;2023-09-19T13:23:31;100127.84;;;24.45;52.32
54854;BME280;40747;49.480;8.658;2023-09-19T13:25:56;100129.13;;;24.41;52.36
54854;BME280;40747;49.480;8.658;2023-09-19T13:28:21;100125.28;;;24.33;52.20
54854;BME280;40747;49.480;8.658;2023-09-19T13:30:47;100117.94;;;24.35;52.54
54854;BME280;40747;49.480;8.658;2023-09-19T13:33:13;100127.25;;;24.12;52.80
54854;BME280;40747;49.480;8.658;2023-09-19T13:35:45;100115.53;;;24.32;52.86
54854;BME280;40747;49.480;8.658;2023-09-19T13:38:13;100120.06;;;24.42;51.23
54854;BME280;40747;49.480;8.658;2023-09-19T13:40:38;100109.00;;;24.45;52.70
54854;BME280;40747;49.480;8.658;2023-09-19T13:43:04;100119.91;;;24.14;52.10
54854;BME280;40747;49.480;8.658;2023-09-19T13:45:32;100110.13;;;24.03;51.96
54854;BME280;40747;49.480;8.658;2023-09-19T13:47:57;100114.53;;;24.14;52.42
54854;BME280;40747;49.480;8.658;2023-09-19T13:50:24;100115.09;;;24.17;52.59
54854;BME280;40747;49.480;8.658;2023-09-19T13:52:51;100105.97;;;23.89;53.18